Time;durP1;ratioP1;P1;durP2;ratioP2;P2;SDS_P1;SDS_P2;PMS_P1;PMS_P2;Temp;Humidity;BMP_temperature;BMP_pressure;BME280_temperature;BME280_humidity;BME280_pressure;Samples;Min_cycle;Max_cycle;Signal;HPM_P1;HPM_P2
2021/12/16 00:01:47;;;;;;;17.80;11.80;;;;;;;;;;5074802;28;20200;-79
2021/12/16 00:09:54;;;;;;;17.40;11.20;;;;;;;;;;5074276;28;20310;-79
2021/12/16 00:31:45;;;;;;;24.40;14.03;;;;;;;;;;5074634;28;20228;-79
2021/12/16 00:34:13;;;;;;;21.43;13.00;;;;;;;;;;5073760;28;20243;-78
2021/12/16 00:36:42;;;;;;;22.33;13.30;;;;;;;;;;5074410;28;20204;-79
2021/12/16 00:39:11;;;;;;;22.57;12.90;;;;;;;;;;5073933;28;20237;-79
2021/12/16 00:41:40;;;;;;;19.87;12.83;;;;;;;;;;5074288;28;20571;-79
2021/12/16 00:44:15;;;;;;;20.07;13.30;;;;;;;;;;5073557;28;20656;-79
2021/12/16 00:47:02;;;;;;;22.97;13.30;;;;;;;;;;5073976;28;20742;-78
2021/12/16 00:49:36;;;;;;;23.43;14.70;;;;;;;;;;5073853;28;20256;-79
2021/12/16 00:55:03;;;;;;;20.43;14.10;;;;;;;;;;5073398;28;20304;-78
2021/12/16 00:57:30;;;;;;;20.17;14.20;;;;;;;;;;5073740;28;20217;-78
2021/12/16 01:00:00;;;;;;;25.00;13.83;;;;;;;;;;5073018;28;20696;-78
2021/12/16 01:02:49;;;;;;;23.53;14.07;;;;;;;;;;5073632;28;20201;-78
2021/12/16 01:08:36;;;;;;;19.60;12.60;;;;;;;;;;5046189;28;20760;-78
2021/12/16 01:36:29;;;;;;;21.63;13.77;;;;;;;;;;5051486;28;20235;-79
2021/12/16 01:47:53;;;;;;;20.17;12.70;;;;;;;;;;5072421;28;20262;-78
2021/12/16 01:50:26;;;;;;;19.90;12.67;;;;;;;;;;5072194;28;20256;-78
2021/12/16 01:55:44;;;;;;;23.23;13.87;;;;;;;;;;5071927;28;20231;-78
2021/12/16 01:58:15;;;;;;;16.77;12.73;;;;;;;;;;5072093;28;20189;-79
2021/12/16 02:00:54;;;;;;;18.17;12.97;;;;;;;;;;5072104;28;20236;-79
2021/12/16 02:03:26;;;;;;;18.53;13.37;;;;;;;;;;5071741;28;20224;-78
2021/12/16 02:06:06;;;;;;;19.37;12.63;;;;;;;;;;5069784;28;20279;-79
2021/12/16 02:08:38;;;;;;;20.80;12.80;;;;;;;;;;5071069;28;20264;-79
2021/12/16 02:11:22;;;;;;;21.93;13.67;;;;;;;;;;5063245;28;20255;-79
2021/12/16 02:33:49;;;;;;;19.77;14.10;;;;;;;;;;5071697;28;20288;-78
2021/12/16 02:36:25;;;;;;;18.47;13.67;;;;;;;;;;5063653;28;20221;-78
2021/12/16 02:38:56;;;;;;;20.60;12.67;;;;;;;;;;5071602;28;20600;-78
2021/12/16 02:41:24;;;;;;;19.47;13.83;;;;;;;;;;5070303;28;20197;-78
2021/12/16 02:44:14;;;;;;;25.47;15.03;;;;;;;;;;5071375;28;20311;-78
2021/12/16 02:49:27;;;;;;;18.60;13.17;;;;;;;;;;5051628;28;20245;-78
2021/12/16 02:51:56;;;;;;;21.20;14.00;;;;;;;;;;5072409;28;20205;-79
2021/12/16 02:54:25;;;;;;;23.70;14.27;;;;;;;;;;5074922;28;20308;-78
2021/12/16 02:56:52;;;;;;;22.50;13.87;;;;;;;;;;5075903;28;20197;-79
2021/12/16 02:59:25;;;;;;;22.53;14.60;;;;;;;;;;5097787;22;20239;-80
2021/12/16 03:01:53;;;;;;;19.03;12.93;;;;;;;;;;5051854;28;20241;-80
2021/12/16 03:04:21;;;;;;;19.53;13.03;;;;;;;;;;5054829;28;20253;-80
2021/12/16 03:06:50;;;;;;;19.57;12.73;;;;;;;;;;5056140;28;20205;-80
2021/12/16 03:09:23;;;;;;;19.17;12.83;;;;;;;;;;5055111;28;20283;-81
2021/12/16 03:12:23;;;;;;;19.50;13.57;;;;;;;;;;5035806;28;20640;-80
2021/12/16 03:14:45;;;;;;;20.27;13.83;;;;;;;;;;5031211;28;20234;-80
2021/12/16 03:17:19;;;;;;;20.77;14.80;;;;;;;;;;5036214;28;20272;-81
2021/12/16 03:19:59;;;;;;;18.43;13.50;;;;;;;;;;5036133;28;20320;-81
2021/12/16 03:22:47;;;;;;;18.93;13.20;;;;;;;;;;5037011;28;20297;-80
2021/12/16 03:25:27;;;;;;;16.77;12.57;;;;;;;;;;5035146;28;20336;-80
2021/12/16 03:31:00;;;;;;;18.30;12.07;;;;;;;;;;5031709;28;20757;-80
2021/12/16 03:36:26;;;;;;;19.33;13.83;;;;;;;;;;5038114;28;20213;-80
2021/12/16 03:38:56;;;;;;;18.57;12.90;;;;;;;;;;5037669;28;20303;-80
2021/12/16 03:41:23;;;;;;;17.00;12.73;;;;;;;;;;5038101;28;20222;-80
2021/12/16 03:43:52;;;;;;;16.20;11.83;;;;;;;;;;5037227;28;20237;-80
2021/12/16 03:46:26;;;;;;;19.83;13.53;;;;;;;;;;5038897;28;20211;-80
2021/12/16 03:48:56;;;;;;;20.63;13.70;;;;;;;;;;5025547;28;20245;-81
2021/12/16 03:51:25;;;;;;;18.40;12.33;;;;;;;;;;5037469;28;20307;-80
2021/12/16 03:53:53;;;;;;;18.37;12.40;;;;;;;;;;5032447;28;20241;-80
2021/12/16 03:56:20;;;;;;;18.67;13.20;;;;;;;;;;5057754;28;20541;-80
2021/12/16 03:58:47;;;;;;;19.17;13.20;;;;;;;;;;5043902;28;20599;-81
2021/12/16 04:01:17;;;;;;;19.67;13.43;;;;;;;;;;5050418;28;20636;-79
2021/12/16 04:03:44;;;;;;;18.40;13.30;;;;;;;;;;5053686;28;20199;-80
2021/12/16 04:06:12;;;;;;;21.43;14.03;;;;;;;;;;5042223;28;20202;-80
2021/12/16 04:08:39;;;;;;;19.27;14.17;;;;;;;;;;5058478;28;20233;-81
2021/12/16 04:11:10;;;;;;;21.83;13.37;;;;;;;;;;5058189;28;20237;-80
2021/12/16 04:13:52;;;;;;;19.20;13.47;;;;;;;;;;5056115;28;20209;-80
2021/12/16 04:16:20;;;;;;;19.87;14.07;;;;;;;;;;5057250;28;20198;-80
2021/12/16 04:18:48;;;;;;;20.17;13.97;;;;;;;;;;5057833;28;20240;-81
2021/12/16 04:21:15;;;;;;;19.10;13.33;;;;;;;;;;5060240;28;20260;-80
2021/12/16 04:23:42;;;;;;;20.33;13.50;;;;;;;;;;5058660;28;20226;-80
2021/12/16 04:26:09;;;;;;;19.73;13.30;;;;;;;;;;5047995;28;20210;-80
2021/12/16 04:28:36;;;;;;;19.93;13.23;;;;;;;;;;5045424;28;20222;-80
2021/12/16 04:31:04;;;;;;;21.47;13.73;;;;;;;;;;5040731;28;20293;-80
2021/12/16 04:33:32;;;;;;;20.87;13.27;;;;;;;;;;5038984;28;20233;-80
2021/12/16 04:35:59;;;;;;;17.07;12.53;;;;;;;;;;5038783;28;20221;-80
2021/12/16 04:38:26;;;;;;;17.17;12.20;;;;;;;;;;5038941;28;20202;-80
2021/12/16 04:40:53;;;;;;;17.53;12.40;;;;;;;;;;5038842;28;20222;-80
2021/12/16 04:43:22;;;;;;;18.80;12.70;;;;;;;;;;5038738;28;20206;-80
2021/12/16 04:45:49;;;;;;;22.63;14.00;;;;;;;;;;5038711;28;20317;-80
2021/12/16 04:48:16;;;;;;;18.53;13.97;;;;;;;;;;5038985;28;20226;-80
2021/12/16 04:50:45;;;;;;;19.30;12.47;;;;;;;;;;5052275;28;20253;-80
2021/12/16 04:53:12;;;;;;;20.80;13.50;;;;;;;;;;5042284;28;20202;-81
2021/12/16 04:55:39;;;;;;;15.93;12.17;;;;;;;;;;5051773;28;20222;-81
2021/12/16 04:58:07;;;;;;;20.93;12.53;;;;;;;;;;5056994;28;20205;-81
2021/12/16 05:00:34;;;;;;;22.53;13.50;;;;;;;;;;5044413;28;20246;-81
2021/12/16 05:03:01;;;;;;;18.13;12.67;;;;;;;;;;5038847;28;20210;-81
2021/12/16 05:05:28;;;;;;;21.90;13.90;;;;;;;;;;5038307;28;20234;-81
2021/12/16 05:07:56;;;;;;;19.57;14.00;;;;;;;;;;5039194;28;20230;-81
2021/12/16 05:10:23;;;;;;;22.13;13.63;;;;;;;;;;5038574;28;20253;-81
2021/12/16 05:12:52;;;;;;;19.40;13.00;;;;;;;;;;5038832;28;20202;-81
2021/12/16 05:15:20;;;;;;;21.27;13.67;;;;;;;;;;5037981;28;20241;-81
2021/12/16 05:17:51;;;;;;;20.50;13.30;;;;;;;;;;5038981;28;20203;-81
2021/12/16 05:20:20;;;;;;;16.13;12.53;;;;;;;;;;5037820;28;20677;-81
2021/12/16 05:25:48;;;;;;;19.23;13.00;;;;;;;;;;5051972;28;20256;-81
2021/12/16 05:28:16;;;;;;;19.20;13.17;;;;;;;;;;5048974;28;20222;-81
2021/12/16 05:30:43;;;;;;;18.97;13.10;;;;;;;;;;5042242;28;20261;-81
2021/12/16 05:33:11;;;;;;;20.23;12.27;;;;;;;;;;5045792;28;20573;-81
2021/12/16 05:35:38;;;;;;;17.70;12.77;;;;;;;;;;5038001;28;20234;-81
2021/12/16 05:38:05;;;;;;;20.17;13.33;;;;;;;;;;5038536;28;20222;-81
2021/12/16 05:40:34;;;;;;;16.70;12.50;;;;;;;;;;5037990;28;20238;-81
2021/12/16 05:43:02;;;;;;;16.63;11.90;;;;;;;;;;5038469;28;20207;-81
2021/12/16 05:45:30;;;;;;;24.80;13.17;;;;;;;;;;5037236;28;20242;-81
2021/12/16 05:47:59;;;;;;;19.17;13.00;;;;;;;;;;5038302;28;20274;-81
2021/12/16 05:50:28;;;;;;;17.07;12.60;;;;;;;;;;5037780;28;20238;-81
2021/12/16 05:52:55;;;;;;;20.13;13.10;;;;;;;;;;5054430;28;20218;-81
2021/12/16 05:55:22;;;;;;;18.43;13.03;;;;;;;;;;5049607;28;20233;-81
2021/12/16 05:57:55;;;;;;;17.40;13.10;;;;;;;;;;5050406;28;20203;-81
2021/12/16 06:00:23;;;;;;;20.00;12.80;;;;;;;;;;5040588;28;20324;-81
2021/12/16 06:02:51;;;;;;;18.30;13.03;;;;;;;;;;5056759;28;20395;-81
2021/12/16 06:05:19;;;;;;;19.27;13.20;;;;;;;;;;5057280;28;20234;-81
2021/12/16 06:07:46;;;;;;;21.23;12.87;;;;;;;;;;5057817;28;20209;-81
2021/12/16 06:10:40;;;;;;;18.93;13.13;;;;;;;;;;5057938;28;20246;-82
2021/12/16 06:13:03;;;;;;;19.90;12.80;;;;;;;;;;5062075;28;20310;-82
2021/12/16 06:15:43;;;;;;;20.27;13.13;;;;;;;;;;5060884;28;20705;-82
2021/12/16 06:26:30;;;;;;;18.70;13.27;;;;;;;;;;5054625;28;20663;-82
2021/12/16 06:28:58;;;;;;;20.37;12.67;;;;;;;;;;5064407;28;20244;-82
2021/12/16 06:31:26;;;;;;;18.00;12.60;;;;;;;;;;5062631;28;20214;-82
2021/12/16 06:33:53;;;;;;;22.50;13.00;;;;;;;;;;5061551;28;20253;-83
2021/12/16 06:36:20;;;;;;;22.47;14.93;;;;;;;;;;5066886;28;20221;-83
2021/12/16 06:38:47;;;;;;;20.20;13.07;;;;;;;;;;5067525;28;20681;-83
2021/12/16 06:41:14;;;;;;;16.73;13.10;;;;;;;;;;5067528;28;20238;-83
2021/12/16 06:43:42;;;;;;;16.40;11.70;;;;;;;;;;5064958;28;20202;-84
2021/12/16 06:46:15;;;;;;;21.87;12.83;;;;;;;;;;5061647;28;20273;-83
2021/12/16 06:48:45;;;;;;;21.03;12.70;;;;;;;;;;5067519;28;20225;-83
2021/12/16 06:51:19;;;;;;;18.77;13.00;;;;;;;;;;5062131;28;20230;-84
2021/12/16 06:53:51;;;;;;;23.27;13.57;;;;;;;;;;5064439;28;20240;-83
2021/12/16 06:56:24;;;;;;;19.73;12.63;;;;;;;;;;5067452;28;20646;-83
2021/12/16 06:59:03;;;;;;;16.23;12.20;;;;;;;;;;5057139;28;20256;-82
2021/12/16 07:01:38;;;;;;;16.60;11.97;;;;;;;;;;5060693;28;20268;-84
2021/12/16 07:04:06;;;;;;;17.93;12.60;;;;;;;;;;5054373;28;20727;-85
2021/12/16 07:06:34;;;;;;;17.47;12.67;;;;;;;;;;5056291;28;20217;-85
2021/12/16 07:09:03;;;;;;;18.70;12.60;;;;;;;;;;5055060;28;20234;-85
2021/12/16 07:11:36;;;;;;;15.60;11.20;;;;;;;;;;5055205;28;20218;-86
2021/12/16 07:14:04;;;;;;;16.93;11.70;;;;;;;;;;5054976;28;20230;-85
2021/12/16 07:16:33;;;;;;;17.90;11.97;;;;;;;;;;5055690;28;20206;-85
2021/12/16 07:19:00;;;;;;;17.00;12.13;;;;;;;;;;5055232;28;20233;-85
2021/12/16 07:21:27;;;;;;;18.33;11.73;;;;;;;;;;5055627;28;20230;-85
2021/12/16 07:23:54;;;;;;;16.73;11.73;;;;;;;;;;5055014;28;20233;-85
2021/12/16 07:26:21;;;;;;;20.20;12.30;;;;;;;;;;5056099;28;20206;-85
2021/12/16 07:28:49;;;;;;;16.57;12.27;;;;;;;;;;5056319;28;20237;-85
2021/12/16 07:31:16;;;;;;;18.97;12.20;;;;;;;;;;5056117;28;20230;-85
2021/12/16 07:33:44;;;;;;;18.00;12.20;;;;;;;;;;5056390;28;20217;-85
2021/12/16 07:36:13;;;;;;;18.43;12.80;;;;;;;;;;5056323;28;20210;-85
2021/12/16 07:38:40;;;;;;;18.60;12.60;;;;;;;;;;5057277;28;20207;-82
2021/12/16 07:41:07;;;;;;;19.10;13.13;;;;;;;;;;5059875;28;20222;-82
2021/12/16 07:43:55;;;;;;;19.80;13.43;;;;;;;;;;5047492;28;20202;-82
2021/12/16 07:46:22;;;;;;;20.63;13.03;;;;;;;;;;5044070;28;20213;-83
2021/12/16 07:48:51;;;;;;;21.37;12.97;;;;;;;;;;5045596;28;20639;-82
2021/12/16 07:51:18;;;;;;;20.90;13.83;;;;;;;;;;5055569;28;20230;-82
2021/12/16 07:53:46;;;;;;;24.20;14.70;;;;;;;;;;5055160;28;20213;-83
2021/12/16 07:56:13;;;;;;;18.13;13.13;;;;;;;;;;5044684;28;20701;-83
2021/12/16 07:58:40;;;;;;;20.17;13.53;;;;;;;;;;5047197;28;20194;-84
2021/12/16 08:01:08;;;;;;;20.03;13.63;;;;;;;;;;5045956;28;20226;-84
2021/12/16 08:03:36;;;;;;;22.17;12.10;;;;;;;;;;5043895;28;20214;-84
2021/12/16 08:06:06;;;;;;;18.23;11.33;;;;;;;;;;5044371;28;20285;-83
2021/12/16 08:08:34;;;;;;;18.37;12.90;;;;;;;;;;5035805;28;20191;-84
2021/12/16 08:11:01;;;;;;;16.23;12.33;;;;;;;;;;5037067;28;20234;-84
2021/12/16 08:13:28;;;;;;;19.57;12.97;;;;;;;;;;5055321;28;20206;-84
2021/12/16 08:15:55;;;;;;;22.23;13.83;;;;;;;;;;5047720;28;20225;-84
2021/12/16 08:18:22;;;;;;;19.83;13.17;;;;;;;;;;5048776;28;20202;-83
2021/12/16 08:20:49;;;;;;;18.70;12.97;;;;;;;;;;5054631;28;20238;-84
2021/12/16 08:23:17;;;;;;;20.33;12.53;;;;;;;;;;5054652;28;20217;-83
2021/12/16 08:25:44;;;;;;;18.47;11.90;;;;;;;;;;5048740;28;20234;-83
2021/12/16 08:28:11;;;;;;;18.17;12.83;;;;;;;;;;5037055;28;20253;-83
2021/12/16 08:30:41;;;;;;;18.97;12.93;;;;;;;;;;5035834;28;20250;-83
2021/12/16 08:33:09;;;;;;;20.47;13.10;;;;;;;;;;5038383;28;20671;-83
2021/12/16 08:35:36;;;;;;;18.93;12.23;;;;;;;;;;5036532;28;20620;-83
2021/12/16 08:38:04;;;;;;;17.40;13.00;;;;;;;;;;5038586;28;20210;-83
2021/12/16 08:40:32;;;;;;;18.40;12.93;;;;;;;;;;5038122;28;20247;-83
2021/12/16 08:42:59;;;;;;;17.90;12.77;;;;;;;;;;5036075;28;20913;-80
2021/12/16 08:45:28;;;;;;;20.83;13.43;;;;;;;;;;5038485;28;20239;-81
2021/12/16 08:47:55;;;;;;;19.80;13.03;;;;;;;;;;5037790;28;20206;-81
2021/12/16 08:50:24;;;;;;;19.43;13.17;;;;;;;;;;5036605;28;20748;-81
2021/12/16 08:52:51;;;;;;;20.97;13.90;;;;;;;;;;5040493;28;20211;-82
2021/12/16 08:55:19;;;;;;;20.93;13.57;;;;;;;;;;5038411;28;20254;-82
2021/12/16 08:57:47;;;;;;;21.13;13.77;;;;;;;;;;5040139;28;20210;-82
2021/12/16 09:00:17;;;;;;;19.90;12.77;;;;;;;;;;5071831;23;20229;-76
2021/12/16 09:02:44;;;;;;;21.97;14.23;;;;;;;;;;5073215;28;20202;-77
2021/12/16 09:05:12;;;;;;;23.17;13.40;;;;;;;;;;5070652;28;20224;-76
2021/12/16 09:07:39;;;;;;;21.77;13.50;;;;;;;;;;5091059;28;20273;-76
2021/12/16 09:10:10;;;;;;;22.00;13.50;;;;;;;;;;5091999;28;20236;-76
2021/12/16 09:12:50;;;;;;;21.93;14.30;;;;;;;;;;5092475;28;20212;-76
2021/12/16 09:15:20;;;;;;;22.00;12.83;;;;;;;;;;5092102;28;20626;-76
2021/12/16 09:17:47;;;;;;;24.30;13.53;;;;;;;;;;5092553;28;20201;-76
2021/12/16 09:20:14;;;;;;;16.83;11.90;;;;;;;;;;5092117;28;20293;-76
2021/12/16 09:22:42;;;;;;;17.60;12.73;;;;;;;;;;5086361;28;20662;-76
2021/12/16 09:25:09;;;;;;;22.63;13.20;;;;;;;;;;5088287;28;20237;-76
2021/12/16 09:27:36;;;;;;;16.97;12.50;;;;;;;;;;5071943;28;20209;-76
2021/12/16 09:30:05;;;;;;;18.17;12.73;;;;;;;;;;5057830;28;20284;-76
2021/12/16 09:32:34;;;;;;;16.83;11.80;;;;;;;;;;5051293;28;20206;-76
2021/12/16 09:35:01;;;;;;;17.93;12.20;;;;;;;;;;5051489;28;20252;-76
2021/12/16 09:37:29;;;;;;;17.77;12.50;;;;;;;;;;5051068;28;20209;-77
2021/12/16 09:39:56;;;;;;;17.70;12.57;;;;;;;;;;5046945;28;20226;-76
2021/12/16 09:42:25;;;;;;;21.47;12.50;;;;;;;;;;5051439;28;20245;-77
2021/12/16 09:44:53;;;;;;;15.37;11.97;;;;;;;;;;5051579;28;20238;-76
2021/12/16 09:47:21;;;;;;;18.70;12.03;;;;;;;;;;5051328;28;20740;-76
2021/12/16 09:49:49;;;;;;;15.10;10.67;;;;;;;;;;5051588;28;20284;-76
2021/12/16 09:52:17;;;;;;;13.93;11.07;;;;;;;;;;5051820;28;20217;-76
2021/12/16 09:54:45;;;;;;;16.50;12.47;;;;;;;;;;5051582;28;20229;-76
2021/12/16 09:57:13;;;;;;;17.37;11.77;;;;;;;;;;5051042;28;20217;-77
2021/12/16 09:59:41;;;;;;;14.87;11.77;;;;;;;;;;5050904;28;20230;-76
2021/12/16 10:02:12;;;;;;;14.43;11.13;;;;;;;;;;5051111;28;20201;-77
2021/12/16 10:04:39;;;;;;;14.63;10.60;;;;;;;;;;5051254;28;20240;-76
2021/12/16 10:07:11;;;;;;;16.43;11.67;;;;;;;;;;5051314;28;20206;-76
2021/12/16 10:09:38;;;;;;;16.57;12.23;;;;;;;;;;5050903;28;20229;-76
2021/12/16 10:12:11;;;;;;;16.50;11.57;;;;;;;;;;5051461;28;20566;-76
2021/12/16 10:14:59;;;;;;;18.40;12.40;;;;;;;;;;5050924;28;20282;-76
2021/12/16 10:17:30;;;;;;;18.50;11.53;;;;;;;;;;5051123;28;20689;-77
2021/12/16 10:19:58;;;;;;;17.70;11.93;;;;;;;;;;5050757;28;20245;-77
2021/12/16 10:22:31;;;;;;;17.23;11.77;;;;;;;;;;5051482;28;20214;-78
2021/12/16 10:25:16;;;;;;;16.97;12.27;;;;;;;;;;5050839;28;20241;-76
2021/12/16 10:27:52;;;;;;;17.93;12.47;;;;;;;;;;5051467;28;20220;-77
2021/12/16 10:30:20;;;;;;;14.67;11.30;;;;;;;;;;5050997;28;20249;-77
2021/12/16 10:32:49;;;;;;;17.90;12.60;;;;;;;;;;5051168;28;20609;-78
2021/12/16 10:35:18;;;;;;;16.43;12.03;;;;;;;;;;5050933;28;20248;-76
2021/12/16 10:37:48;;;;;;;17.00;12.33;;;;;;;;;;5050851;28;20220;-78
2021/12/16 10:40:26;;;;;;;15.33;10.70;;;;;;;;;;5050725;28;20247;-77
2021/12/16 10:42:54;;;;;;;12.70;10.27;;;;;;;;;;5051005;28;20206;-77
2021/12/16 10:45:32;;;;;;;19.83;11.43;;;;;;;;;;5050627;28;20581;-76
2021/12/16 10:48:14;;;;;;;12.27;9.73;;;;;;;;;;5050708;28;20427;-76
2021/12/16 10:50:51;;;;;;;12.63;10.17;;;;;;;;;;5050402;28;20236;-77
2021/12/16 10:53:40;;;;;;;14.53;10.57;;;;;;;;;;5051090;28;20700;-76
2021/12/16 10:56:07;;;;;;;13.90;10.40;;;;;;;;;;5050636;28;20232;-76
2021/12/16 10:58:51;;;;;;;18.17;11.60;;;;;;;;;;5051726;28;20572;-76
2021/12/16 11:01:35;;;;;;;15.53;10.13;;;;;;;;;;5070942;28;20229;-77
2021/12/16 11:04:03;;;;;;;14.67;10.57;;;;;;;;;;5070837;28;20225;-77
2021/12/16 11:06:31;;;;;;;14.80;10.23;;;;;;;;;;5071020;28;20212;-77
2021/12/16 11:09:13;;;;;;;11.57;9.63;;;;;;;;;;5070622;28;20240;-76
2021/12/16 11:11:41;;;;;;;15.83;10.43;;;;;;;;;;5071345;28;20233;-77
2021/12/16 11:14:08;;;;;;;14.30;10.40;;;;;;;;;;5074423;28;20229;-76
2021/12/16 11:16:36;;;;;;;11.77;9.07;;;;;;;;;;5074676;28;20213;-76
2021/12/16 11:19:05;;;;;;;15.07;9.97;;;;;;;;;;5066199;28;20233;-76
2021/12/16 11:21:39;;;;;;;13.03;9.60;;;;;;;;;;5075232;28;20312;-77
2021/12/16 11:24:22;;;;;;;10.50;8.90;;;;;;;;;;5075073;28;20232;-79
2021/12/16 11:26:51;;;;;;;12.40;9.53;;;;;;;;;;5074661;28;20579;-75
2021/12/16 11:29:18;;;;;;;12.60;9.90;;;;;;;;;;5074284;28;20239;-76
2021/12/16 11:31:47;;;;;;;13.53;9.70;;;;;;;;;;5075053;28;20608;-78
2021/12/16 11:34:16;;;;;;;12.77;9.70;;;;;;;;;;5074054;28;20233;-76
2021/12/16 11:36:44;;;;;;;12.97;8.90;;;;;;;;;;5074626;28;20258;-76
2021/12/16 11:39:12;;;;;;;11.73;8.87;;;;;;;;;;5074191;28;20619;-79
2021/12/16 11:41:40;;;;;;;13.63;9.30;;;;;;;;;;5074364;28;20218;-77
2021/12/16 11:44:12;;;;;;;14.10;9.33;;;;;;;;;;5074507;28;20229;-77
2021/12/16 11:46:41;;;;;;;13.53;9.80;;;;;;;;;;5074639;28;20208;-78
2021/12/16 11:49:09;;;;;;;12.70;9.73;;;;;;;;;;5074213;28;20224;-77
2021/12/16 11:51:38;;;;;;;13.03;9.37;;;;;;;;;;5074470;28;20602;-76
2021/12/16 11:54:07;;;;;;;14.53;10.17;;;;;;;;;;5074105;28;20660;-77
2021/12/16 11:56:37;;;;;;;16.40;9.83;;;;;;;;;;5074306;28;20213;-76
2021/12/16 11:59:05;;;;;;;13.53;9.30;;;;;;;;;;5073883;28;20241;-77
2021/12/16 12:01:34;;;;;;;13.00;8.90;;;;;;;;;;5074046;28;20236;-77
2021/12/16 12:04:02;;;;;;;12.67;8.70;;;;;;;;;;5074666;28;20228;-77
2021/12/16 12:06:31;;;;;;;15.90;9.40;;;;;;;;;;5074189;28;20224;-77
2021/12/16 12:08:59;;;;;;;14.30;9.33;;;;;;;;;;5073819;28;20225;-77
2021/12/16 12:11:27;;;;;;;13.20;9.93;;;;;;;;;;5074585;28;20240;-77
2021/12/16 12:13:57;;;;;;;17.07;9.03;;;;;;;;;;5073348;28;20240;-77
2021/12/16 12:16:27;;;;;;;12.33;9.00;;;;;;;;;;5074134;28;20209;-79
2021/12/16 12:18:57;;;;;;;16.33;9.47;;;;;;;;;;5073280;28;20229;-77
2021/12/16 12:21:27;;;;;;;14.07;9.33;;;;;;;;;;5073741;28;20336;-77
2021/12/16 12:23:56;;;;;;;13.03;8.13;;;;;;;;;;5072527;28;20233;-77
2021/12/16 12:26:24;;;;;;;14.50;8.93;;;;;;;;;;5075465;28;20212;-77
2021/12/16 12:28:52;;;;;;;14.27;9.10;;;;;;;;;;5073640;28;20229;-76
2021/12/16 12:31:21;;;;;;;12.23;8.57;;;;;;;;;;5073622;28;20233;-76
2021/12/16 12:33:49;;;;;;;11.40;8.27;;;;;;;;;;5073750;28;20255;-78
2021/12/16 12:36:18;;;;;;;15.43;8.70;;;;;;;;;;5074058;28;20213;-77
2021/12/16 12:38:45;;;;;;;14.50;8.40;;;;;;;;;;5073032;28;20688;-77
2021/12/16 12:41:12;;;;;;;10.77;8.60;;;;;;;;;;5073281;28;20232;-77
2021/12/16 12:43:39;;;;;;;12.93;9.07;;;;;;;;;;5072898;28;20209;-77
2021/12/16 12:46:07;;;;;;;14.07;9.00;;;;;;;;;;5073780;28;20213;-77
2021/12/16 12:48:35;;;;;;;10.80;8.20;;;;;;;;;;5072962;28;20205;-77
2021/12/16 12:51:04;;;;;;;13.10;8.90;;;;;;;;;;5073469;28;20237;-76
2021/12/16 12:53:35;;;;;;;12.30;8.63;;;;;;;;;;5072975;28;20194;-78
2021/12/16 12:56:10;;;;;;;12.17;9.20;;;;;;;;;;5073368;28;20190;-77
2021/12/16 12:58:48;;;;;;;13.13;10.00;;;;;;;;;;5072260;28;20852;-76
2021/12/16 13:01:15;;;;;;;15.63;10.77;;;;;;;;;;5072769;28;20236;-76
2021/12/16 13:03:42;;;;;;;15.13;10.23;;;;;;;;;;5072479;28;20205;-77
2021/12/16 13:06:10;;;;;;;15.53;9.60;;;;;;;;;;5072910;28;20208;-77
2021/12/16 13:08:41;;;;;;;12.77;9.43;;;;;;;;;;5072378;28;20598;-76
2021/12/16 13:11:10;;;;;;;14.17;10.00;;;;;;;;;;5072893;28;20232;-77
2021/12/16 13:13:44;;;;;;;10.20;7.97;;;;;;;;;;5072275;28;20205;-77
2021/12/16 13:16:23;;;;;;;14.37;9.37;;;;;;;;;;5072547;28;20190;-77
2021/12/16 13:27:31;;;;;;;12.33;9.07;;;;;;;;;;5061679;28;20758;-77
2021/12/16 13:30:16;;;;;;;13.00;8.90;;;;;;;;;;5071642;28;20241;-77
2021/12/16 13:32:46;;;;;;;12.13;9.07;;;;;;;;;;5072593;28;20209;-76
2021/12/16 13:35:32;;;;;;;14.57;8.37;;;;;;;;;;5072455;28;20294;-77
2021/12/16 13:37:59;;;;;;;12.30;9.40;;;;;;;;;;5072930;28;20186;-76
2021/12/16 13:40:28;;;;;;;14.93;9.33;;;;;;;;;;5072511;28;20243;-78
2021/12/16 13:42:58;;;;;;;12.00;9.30;;;;;;;;;;5073166;28;20695;-76
2021/12/16 13:45:31;;;;;;;12.83;9.00;;;;;;;;;;5072737;28;20246;-76
2021/12/16 13:48:26;;;;;;;13.80;8.87;;;;;;;;;;5073163;28;20212;-77
2021/12/16 14:02:54;;;;;;;16.97;8.97;;;;;;;;;;5071501;28;20224;-78
2021/12/16 14:05:27;;;;;;;12.97;8.10;;;;;;;;;;5051466;28;20241;-78
2021/12/16 14:07:56;;;;;;;11.80;8.30;;;;;;;;;;5051467;28;20190;-79
2021/12/16 14:10:33;;;;;;;13.93;8.40;;;;;;;;;;5051491;28;20237;-75
2021/12/16 14:16:22;;;;;;;13.07;8.63;;;;;;;;;;5056380;28;20323;-78
2021/12/16 14:25:02;;;;;;;13.60;8.30;;;;;;;;;;5045169;28;20236;-76
2021/12/16 14:39:10;;;;;;;13.80;8.10;;;;;;;;;;5007860;28;20284;-76
2021/12/16 14:41:47;;;;;;;15.20;8.40;;;;;;;;;;5065174;28;20229;-76
2021/12/16 14:47:12;;;;;;;12.33;8.50;;;;;;;;;;5072192;28;20666;-76
2021/12/16 14:49:42;;;;;;;12.47;8.60;;;;;;;;;;5074242;28;20228;-76
2021/12/16 14:52:14;;;;;;;12.63;8.40;;;;;;;;;;5073360;28;20229;-76
2021/12/16 14:54:46;;;;;;;11.10;8.30;;;;;;;;;;5074680;28;20225;-76
2021/12/16 14:57:14;;;;;;;13.43;8.13;;;;;;;;;;5074854;28;20221;-76
2021/12/16 14:59:41;;;;;;;13.70;9.63;;;;;;;;;;5074820;28;20338;-77
2021/12/16 15:02:10;;;;;;;11.93;8.70;;;;;;;;;;5064729;22;20249;-83
2021/12/16 15:04:37;;;;;;;12.63;9.33;;;;;;;;;;5043711;28;20231;-83
2021/12/16 15:07:08;;;;;;;15.07;9.83;;;;;;;;;;5042532;28;20202;-84
2021/12/16 15:09:38;;;;;;;20.33;10.97;;;;;;;;;;5044118;28;20234;-83
2021/12/16 15:12:11;;;;;;;12.77;10.07;;;;;;;;;;5045977;28;20313;-83
2021/12/16 15:14:54;;;;;;;12.20;9.97;;;;;;;;;;5055043;28;20237;-84
2021/12/16 15:17:39;;;;;;;14.00;10.47;;;;;;;;;;5064046;28;20739;-84
2021/12/16 15:36:48;;;;;;;12.87;9.50;;;;;;;;;;5041867;28;20197;-84
2021/12/16 15:39:44;;;;;;;11.73;9.17;;;;;;;;;;5058384;28;20667;-84
2021/12/16 15:44:58;;;;;;;14.30;9.67;;;;;;;;;;5057385;28;20232;-84
2021/12/16 15:47:26;;;;;;;15.33;9.53;;;;;;;;;;5061436;28;20215;-84
2021/12/16 15:49:54;;;;;;;12.70;9.30;;;;;;;;;;5041000;28;20241;-84
2021/12/16 15:52:21;;;;;;;13.97;9.63;;;;;;;;;;5040146;28;20310;-84
2021/12/16 15:54:52;;;;;;;17.17;9.60;;;;;;;;;;5053969;28;20717;-84
2021/12/16 15:57:21;;;;;;;14.47;10.03;;;;;;;;;;5060349;28;20218;-84
2021/12/16 16:02:42;;;;;;;16.97;11.00;;;;;;;;;;5088706;28;20599;-84
2021/12/16 16:05:10;;;;;;;14.50;9.93;;;;;;;;;;5077888;28;20659;-84
2021/12/16 16:07:38;;;;;;;16.40;10.40;;;;;;;;;;5091625;28;20208;-82
2021/12/16 16:10:06;;;;;;;13.30;9.67;;;;;;;;;;5101377;28;20273;-82
2021/12/16 16:12:34;;;;;;;14.70;11.23;;;;;;;;;;5118696;28;20229;-82
2021/12/16 16:15:16;;;;;;;16.03;11.20;;;;;;;;;;5118757;28;20233;-83
2021/12/16 16:17:55;;;;;;;14.70;10.50;;;;;;;;;;5118034;28;20223;-83
2021/12/16 16:20:22;;;;;;;15.30;11.00;;;;;;;;;;5118771;28;20232;-82
2021/12/16 16:22:49;;;;;;;16.27;12.07;;;;;;;;;;5120160;28;20200;-81
2021/12/16 16:25:17;;;;;;;16.70;11.60;;;;;;;;;;5116308;28;20266;-82
2021/12/16 16:27:44;;;;;;;18.77;13.43;;;;;;;;;;5121555;28;20207;-82
2021/12/16 16:30:11;;;;;;;20.03;12.37;;;;;;;;;;5121075;28;20236;-83
2021/12/16 16:33:00;;;;;;;19.17;13.60;;;;;;;;;;5121576;28;20212;-83
2021/12/16 16:35:29;;;;;;;18.07;13.73;;;;;;;;;;5113101;28;20237;-82
2021/12/16 16:38:07;;;;;;;22.10;13.77;;;;;;;;;;5106277;28;20201;-83
2021/12/16 16:40:37;;;;;;;21.17;13.57;;;;;;;;;;5096614;28;20244;-82
2021/12/16 16:43:16;;;;;;;18.10;13.67;;;;;;;;;;5106444;28;20215;-82
2021/12/16 16:45:44;;;;;;;18.20;12.57;;;;;;;;;;5116894;28;20234;-82
2021/12/16 16:48:27;;;;;;;20.67;11.67;;;;;;;;;;5116720;28;20200;-82
2021/12/16 16:51:04;;;;;;;25.63;11.20;;;;;;;;;;5116938;28;20428;-82
2021/12/16 16:53:31;;;;;;;15.47;10.97;;;;;;;;;;5116791;28;20204;-82
2021/12/16 16:55:58;;;;;;;16.17;11.30;;;;;;;;;;5118970;28;20205;-82
2021/12/16 16:58:26;;;;;;;17.87;10.47;;;;;;;;;;5118501;28;20212;-82
2021/12/16 17:00:53;;;;;;;17.77;11.80;;;;;;;;;;5118721;28;20238;-82
2021/12/16 17:03:22;;;;;;;16.43;11.30;;;;;;;;;;5118748;28;20208;-82
2021/12/16 17:05:52;;;;;;;20.93;12.23;;;;;;;;;;5115988;28;20236;-82
2021/12/16 17:08:24;;;;;;;20.17;10.97;;;;;;;;;;5097974;28;20192;-82
2021/12/16 17:10:52;;;;;;;15.67;11.27;;;;;;;;;;5097718;28;20236;-82
2021/12/16 17:13:23;;;;;;;16.53;11.30;;;;;;;;;;5087810;28;20209;-82
2021/12/16 17:18:33;;;;;;;16.27;11.40;;;;;;;;;;5083688;28;20255;-82
2021/12/16 17:21:11;;;;;;;16.67;11.17;;;;;;;;;;5083193;28;20658;-82
2021/12/16 17:23:40;;;;;;;19.23;11.33;;;;;;;;;;5082964;28;20699;-82
2021/12/16 17:26:19;;;;;;;15.57;10.63;;;;;;;;;;5082771;28;20216;-82
2021/12/16 17:28:51;;;;;;;20.70;11.23;;;;;;;;;;5082988;28;20241;-82
2021/12/16 17:31:29;;;;;;;13.23;11.20;;;;;;;;;;5082435;28;20221;-82
2021/12/16 17:34:05;;;;;;;15.03;10.90;;;;;;;;;;5082249;28;20700;-83
2021/12/16 17:36:32;;;;;;;13.60;10.27;;;;;;;;;;5085472;28;20212;-80
2021/12/16 17:39:07;;;;;;;13.90;10.27;;;;;;;;;;5100855;28;20240;-82